createdAt,value
2022-10-18T00:02:25.843Z,19.20
2022-10-18T00:05:12.680Z,21.10
2022-10-18T00:07:59.586Z,31.40
2022-10-18T00:10:46.385Z,20.20
2022-10-18T00:13:33.435Z,26.10
2022-10-18T00:16:20.166Z,21.60
2022-10-18T00:19:07.237Z,23.20
2022-10-18T00:21:54.063Z,29.10
2022-10-18T00:24:40.865Z,24.60
2022-10-18T00:27:31.403Z,24.00
2022-10-18T00:30:18.345Z,20.40
2022-10-18T00:33:04.958Z,20.50
2022-10-18T00:35:51.688Z,19.70
2022-10-18T00:38:39.019Z,29.30
2022-10-18T00:41:28.345Z,26.80
2022-10-18T00:44:15.066Z,23.40
2022-10-18T00:47:05.194Z,25.30
2022-10-18T00:49:58.136Z,14.40
2022-10-18T00:52:50.262Z,23.10
2022-10-18T00:55:36.963Z,23.60
2022-10-18T00:58:23.820Z,12.40
2022-10-18T01:02:11.611Z,17.00
2022-10-18T01:04:58.839Z,22.50
2022-10-18T01:08:07.528Z,22.40
2022-10-18T01:11:18.830Z,29.40
2022-10-18T01:14:26.073Z,16.30
2022-10-18T01:17:28.032Z,32.80
2022-10-18T01:20:38.584Z,33.20
2022-10-18T01:24:03.086Z,31.80
2022-10-18T01:27:37.162Z,32.70
2022-10-18T01:30:48.158Z,18.90
2022-10-18T01:33:46.337Z,26.50
2022-10-18T01:36:36.405Z,18.70
2022-10-18T01:39:38.161Z,26.10
2022-10-18T01:42:25.449Z,27.70
2022-10-18T01:45:13.786Z,25.80
2022-10-18T01:48:02.147Z,27.10
2022-10-18T01:50:49.128Z,14.30
2022-10-18T01:53:35.786Z,22.00
2022-10-18T01:56:44.309Z,18.50
2022-10-18T01:59:42.614Z,23.80
2022-10-18T02:02:51.178Z,21.50
2022-10-18T02:05:44.177Z,24.60
2022-10-18T02:08:38.316Z,28.10
2022-10-18T02:11:28.332Z,20.60
2022-10-18T02:14:18.977Z,23.80
2022-10-18T02:17:09.662Z,20.60
2022-10-18T02:19:57.378Z,14.50
2022-10-18T02:22:46.306Z,17.50
2022-10-18T02:25:35.247Z,20.60
2022-10-18T02:28:22.633Z,10.90
2022-10-18T02:31:14.167Z,21.00
2022-10-18T02:34:09.152Z,16.50
2022-10-18T02:36:59.642Z,18.50
2022-10-18T02:39:49.095Z,22.10
2022-10-18T02:42:40.078Z,19.80
2022-10-18T02:45:27.513Z,19.40
2022-10-18T02:48:14.033Z,22.30
2022-10-18T02:51:00.478Z,17.10
2022-10-18T02:53:46.966Z,18.30
2022-10-18T02:56:33.458Z,16.40
2022-10-18T02:59:20.124Z,11.60
2022-10-18T03:02:06.717Z,15.30
2022-10-18T03:04:53.639Z,8.20
2022-10-18T03:07:40.158Z,16.30
2022-10-18T03:10:26.834Z,13.40
2022-10-18T03:13:13.670Z,19.40
2022-10-18T03:16:01.563Z,21.50
2022-10-18T03:18:48.623Z,11.10
2022-10-18T03:21:35.276Z,23.50
2022-10-18T03:24:22.025Z,17.30
2022-10-18T03:27:08.896Z,14.90
2022-10-18T03:29:55.418Z,16.60
2022-10-18T03:32:42.256Z,21.40
2022-10-18T03:35:29.016Z,32.20
2022-10-18T03:38:15.653Z,39.40
2022-10-18T03:41:02.293Z,24.00
2022-10-18T03:43:49.194Z,14.90
2022-10-18T03:46:35.934Z,12.80
2022-10-18T03:49:22.906Z,21.40
2022-10-18T03:52:09.811Z,18.00
2022-10-18T03:54:56.446Z,12.30
2022-10-18T03:57:42.944Z,14.40
2022-10-18T04:00:30.038Z,17.50
2022-10-18T04:03:16.764Z,15.80
2022-10-18T04:06:03.812Z,13.20
2022-10-18T04:08:50.783Z,8.80
2022-10-18T04:11:37.443Z,13.90
2022-10-18T04:14:24.056Z,14.20
2022-10-18T04:17:10.722Z,16.30
2022-10-18T04:19:57.451Z,22.10
2022-10-18T04:22:44.547Z,19.10
2022-10-18T04:25:31.133Z,21.10
2022-10-18T04:28:18.706Z,22.00
2022-10-18T04:31:06.445Z,14.10
2022-10-18T04:33:53.340Z,13.30
2022-10-18T04:36:40.526Z,15.90
2022-10-18T04:39:27.219Z,10.70
2022-10-18T04:42:14.696Z,12.00
2022-10-18T04:45:02.080Z,14.30
2022-10-18T04:47:48.797Z,14.10
2022-10-18T04:50:35.839Z,11.80
2022-10-18T04:53:33.877Z,19.30
2022-10-18T04:56:20.751Z,15.00
2022-10-18T04:59:07.293Z,14.40
2022-10-18T05:01:54.053Z,17.30
2022-10-18T05:04:40.829Z,16.00
2022-10-18T05:07:27.515Z,14.60
2022-10-18T05:10:14.225Z,19.70
2022-10-18T05:13:01.103Z,18.90
2022-10-18T05:15:48.298Z,13.60
2022-10-18T05:18:35.316Z,10.60
2022-10-18T05:21:21.866Z,10.90
2022-10-18T05:24:11.749Z,10.90
2022-10-18T05:26:58.616Z,14.30
2022-10-18T05:29:45.124Z,11.70
2022-10-18T05:32:31.691Z,7.20
2022-10-18T05:35:18.648Z,12.40
2022-10-18T05:38:06.354Z,6.50
2022-10-18T05:40:53.634Z,9.10
2022-10-18T05:43:41.236Z,13.00
2022-10-18T05:46:28.250Z,8.60
2022-10-18T05:49:15.074Z,7.40
2022-10-18T05:52:02.181Z,8.30
2022-10-18T05:54:48.822Z,13.60
2022-10-18T05:57:35.599Z,8.70
2022-10-18T06:00:22.010Z,17.90
2022-10-18T06:03:10.253Z,8.70
2022-10-18T06:06:04.813Z,11.10
2022-10-18T06:08:52.646Z,8.60
2022-10-18T06:11:39.524Z,6.60
2022-10-18T06:14:26.494Z,12.90
2022-10-18T06:17:13.262Z,10.50
2022-10-18T06:20:00.192Z,6.90
2022-10-18T06:22:47.238Z,12.70
2022-10-18T06:25:33.794Z,14.00
2022-10-18T06:28:20.518Z,8.80
2022-10-18T06:31:07.286Z,11.10
2022-10-18T06:33:57.582Z,8.20
2022-10-18T06:36:44.183Z,17.50
2022-10-18T06:39:30.663Z,13.20
2022-10-18T06:42:19.174Z,8.40
2022-10-18T06:45:09.025Z,11.30
2022-10-18T06:47:55.933Z,10.60
2022-10-18T06:50:43.257Z,8.40
2022-10-18T06:53:32.859Z,6.40
2022-10-18T06:56:19.601Z,7.80
2022-10-18T06:59:07.639Z,8.00
2022-10-18T07:01:54.675Z,14.40
2022-10-18T07:04:41.829Z,7.00
2022-10-18T07:07:32.181Z,10.50
2022-10-18T07:10:18.902Z,6.40
2022-10-18T07:13:27.313Z,6.50
2022-10-18T07:16:17.463Z,9.90
2022-10-18T07:19:06.896Z,8.80
2022-10-18T07:21:53.350Z,7.70
2022-10-18T07:24:39.979Z,8.60
2022-10-18T07:27:27.302Z,15.40
2022-10-18T07:30:14.331Z,9.30
2022-10-18T07:33:00.953Z,6.90
2022-10-18T07:35:47.979Z,6.10
2022-10-18T07:38:35.562Z,6.60
2022-10-18T07:41:22.513Z,6.70
2022-10-18T07:44:09.291Z,7.20
2022-10-18T07:46:55.804Z,6.40
2022-10-18T07:49:42.750Z,6.90
2022-10-18T07:52:29.695Z,10.10
2022-10-18T07:55:16.530Z,7.10
2022-10-18T07:58:03.303Z,6.20
2022-10-18T08:00:50.096Z,5.80
2022-10-18T08:03:37.631Z,8.20
2022-10-18T08:06:24.512Z,5.80
2022-10-18T08:09:12.317Z,10.00
2022-10-18T08:12:00.874Z,6.90
2022-10-18T08:14:48.048Z,7.00
2022-10-18T08:17:35.070Z,6.30
2022-10-18T08:20:31.173Z,6.40
2022-10-18T08:23:18.231Z,7.30
2022-10-18T08:26:07.440Z,5.50
2022-10-18T08:29:10.395Z,5.20
2022-10-18T08:32:02.003Z,5.80
2022-10-18T08:34:48.410Z,6.50
2022-10-18T08:37:35.818Z,11.70
2022-10-18T08:40:22.949Z,6.80
2022-10-18T08:43:55.982Z,5.70
2022-10-18T08:46:47.632Z,6.00
2022-10-18T08:49:46.840Z,5.10
2022-10-18T08:53:03.192Z,5.10
2022-10-18T08:55:54.915Z,6.50
2022-10-18T08:58:44.376Z,6.20
2022-10-18T09:01:53.285Z,11.00
2022-10-18T09:04:47.428Z,7.90
2022-10-18T09:08:18.240Z,10.00
2022-10-18T09:11:41.642Z,6.40
2022-10-18T09:14:34.263Z,4.80
2022-10-18T09:17:53.519Z,7.80
2022-10-18T09:20:58.427Z,5.00
2022-10-18T09:23:50.006Z,5.40
2022-10-18T09:26:50.535Z,5.90
2022-10-18T09:29:46.763Z,5.20
2022-10-18T09:32:51.185Z,8.10
2022-10-18T09:35:47.874Z,4.50
2022-10-18T09:38:44.215Z,5.10
2022-10-18T09:41:51.196Z,5.10
2022-10-18T09:44:56.153Z,4.70
2022-10-18T09:47:52.443Z,4.20
2022-10-18T09:50:57.262Z,5.00
2022-10-18T09:53:56.672Z,5.00
2022-10-18T09:57:01.529Z,4.20
2022-10-18T09:59:49.836Z,4.00
2022-10-18T10:02:36.776Z,6.70
2022-10-18T10:05:23.378Z,4.40
2022-10-18T10:08:12.116Z,6.70
2022-10-18T10:10:58.737Z,6.20
2022-10-18T10:13:45.658Z,9.70
2022-10-18T10:16:32.467Z,4.80
2022-10-18T10:19:38.446Z,5.10
2022-10-18T10:22:36.108Z,5.40
2022-10-18T10:25:31.301Z,4.90
2022-10-18T10:28:21.825Z,4.50
2022-10-18T10:31:26.283Z,3.50
2022-10-18T10:34:12.800Z,7.60
2022-10-18T10:36:59.680Z,6.60
2022-10-18T10:39:55.436Z,4.10
2022-10-18T10:43:36.403Z,4.60
2022-10-18T10:46:35.764Z,5.10
2022-10-18T10:49:39.804Z,5.10
2022-10-18T10:52:29.560Z,6.10
2022-10-18T10:58:30.684Z,5.40
2022-10-18T11:01:26.261Z,3.30
2022-10-18T11:04:30.323Z,4.70
2022-10-18T11:07:30.760Z,4.00
2022-10-18T11:10:23.108Z,4.40
2022-10-18T11:13:41.857Z,6.00
2022-10-18T11:17:02.055Z,4.70
2022-10-18T11:20:10.398Z,9.40
2022-10-18T11:23:08.046Z,3.30
2022-10-18T11:26:11.341Z,4.60
2022-10-18T11:29:27.493Z,3.80
2022-10-18T11:33:03.015Z,3.70
2022-10-18T11:36:13.759Z,7.70
2022-10-18T11:39:24.281Z,4.60
2022-10-18T11:42:27.000Z,3.80
2022-10-18T11:45:44.975Z,5.00
2022-10-18T11:48:45.544Z,3.40
2022-10-18T11:52:03.088Z,4.00
2022-10-18T11:55:19.248Z,4.50
2022-10-18T11:58:23.891Z,4.80
2022-10-18T12:01:28.567Z,7.40
2022-10-18T12:04:33.244Z,4.20
2022-10-18T12:07:27.752Z,7.20
2022-10-18T12:10:31.478Z,4.60
2022-10-18T12:13:59.575Z,4.10
2022-10-18T12:16:51.360Z,9.20
2022-10-18T12:19:40.656Z,4.20
2022-10-18T12:22:40.094Z,4.50
2022-10-18T12:25:30.467Z,4.70
2022-10-18T12:28:41.717Z,4.50
2022-10-18T12:31:39.893Z,4.00
2022-10-18T12:34:43.802Z,5.20
2022-10-18T12:37:37.454Z,4.10
2022-10-18T12:40:30.621Z,3.40
2022-10-18T12:43:38.018Z,5.10
2022-10-18T12:46:25.336Z,4.20
2022-10-18T12:49:19.621Z,4.00
2022-10-18T12:52:19.736Z,5.30
2022-10-18T12:55:29.275Z,5.70
2022-10-18T12:58:30.873Z,8.30
2022-10-18T13:01:19.463Z,4.10
2022-10-18T13:04:28.860Z,4.30
2022-10-18T13:07:31.586Z,4.20
2022-10-18T13:10:18.372Z,6.60
2022-10-18T13:13:39.331Z,4.50
2022-10-18T13:17:01.058Z,4.50
2022-10-18T13:20:26.496Z,5.00
2022-10-18T13:23:39.852Z,4.70
2022-10-18T13:26:59.159Z,5.30
2022-10-18T13:33:17.534Z,6.20
2022-10-18T13:36:27.143Z,5.20
2022-10-18T13:39:21.265Z,5.60
2022-10-18T13:42:30.280Z,7.70
2022-10-18T13:45:33.320Z,8.10
2022-10-18T13:48:29.049Z,4.90
2022-10-18T13:51:47.675Z,6.10
2022-10-18T13:54:51.165Z,4.30
2022-10-18T13:57:45.637Z,16.00
2022-10-18T14:00:54.916Z,5.70
2022-10-18T14:04:04.089Z,5.60
2022-10-18T14:06:56.655Z,6.00
2022-10-18T14:09:54.869Z,6.00
2022-10-18T14:12:54.735Z,7.30
2022-10-18T14:15:45.314Z,5.80
2022-10-18T14:18:36.776Z,5.90
2022-10-18T14:21:32.909Z,5.60
2022-10-18T14:24:26.333Z,6.90
2022-10-18T14:27:25.336Z,5.80
2022-10-18T14:30:20.404Z,6.30
2022-10-18T14:33:27.939Z,5.80
2022-10-18T14:36:19.871Z,19.10
2022-10-18T14:39:18.984Z,6.40
2022-10-18T14:42:05.928Z,8.60
2022-10-18T14:44:55.690Z,8.10
2022-10-18T14:47:45.417Z,7.20
2022-10-18T14:50:34.180Z,7.90
2022-10-18T14:53:25.205Z,8.20
2022-10-18T14:56:26.127Z,8.90
2022-10-18T14:59:25.836Z,7.00
2022-10-18T15:02:16.283Z,8.10
2022-10-18T15:05:05.888Z,7.60
2022-10-18T15:07:53.748Z,9.50
2022-10-18T15:10:40.815Z,7.00
2022-10-18T15:13:28.306Z,8.10
2022-10-18T15:16:18.922Z,7.70
2022-10-18T15:19:15.711Z,8.90
2022-10-18T15:25:16.158Z,9.70
2022-10-18T15:28:03.042Z,6.40
2022-10-18T15:30:49.909Z,6.80
2022-10-18T15:33:37.093Z,9.60
2022-10-18T15:36:29.733Z,11.00
2022-10-18T15:39:19.007Z,11.00
2022-10-18T15:42:06.164Z,9.50
2022-10-18T15:44:58.206Z,7.80
2022-10-18T15:47:58.225Z,10.10
2022-10-18T15:50:49.653Z,10.10
2022-10-18T15:53:52.523Z,7.20
2022-10-18T15:56:43.896Z,9.10
2022-10-18T15:59:32.380Z,13.10
2022-10-18T16:02:20.268Z,8.30
2022-10-18T16:05:19.231Z,8.30
2022-10-18T16:08:06.288Z,7.20
2022-10-18T16:10:53.514Z,8.10
2022-10-18T16:13:40.733Z,10.40
2022-10-18T16:16:29.913Z,12.10
2022-10-18T16:19:18.851Z,8.10
2022-10-18T16:22:07.161Z,12.60
2022-10-18T16:24:54.249Z,9.80
2022-10-18T16:27:41.228Z,10.10
2022-10-18T16:30:31.400Z,8.50
2022-10-18T16:33:22.355Z,7.50
2022-10-18T16:36:14.886Z,10.30
2022-10-18T16:39:04.412Z,13.20
2022-10-18T16:41:53.583Z,10.00
2022-10-18T16:44:40.463Z,10.50
2022-10-18T16:47:27.681Z,14.00
2022-10-18T16:50:17.832Z,14.50
2022-10-18T16:53:04.771Z,16.00
2022-10-18T16:55:59.458Z,9.80
2022-10-18T16:58:48.061Z,9.70
2022-10-18T17:01:35.553Z,9.20
2022-10-18T17:04:23.045Z,12.30
2022-10-18T17:07:23.572Z,15.10
2022-10-18T17:10:20.420Z,9.60
2022-10-18T17:13:07.389Z,14.30
2022-10-18T17:15:55.107Z,10.50
2022-10-18T17:18:41.823Z,12.10
2022-10-18T17:21:30.165Z,14.90
2022-10-18T17:24:19.733Z,10.80
2022-10-18T17:27:06.951Z,10.30
2022-10-18T17:29:53.791Z,10.90
2022-10-18T17:32:46.143Z,16.20
2022-10-18T17:38:20.334Z,9.90
2022-10-18T17:41:12.619Z,11.10
2022-10-18T17:44:03.132Z,11.20
2022-10-18T17:46:50.765Z,12.30
2022-10-18T17:49:38.599Z,20.90
2022-10-18T17:52:36.253Z,14.70
2022-10-18T17:55:25.132Z,12.20
2022-10-18T17:58:12.819Z,11.40
2022-10-18T18:01:13.247Z,12.30
2022-10-18T18:04:02.656Z,16.50
2022-10-18T18:06:49.681Z,13.60
2022-10-18T18:09:36.648Z,13.10
2022-10-18T18:12:28.591Z,13.50
2022-10-18T18:15:15.474Z,14.20
2022-10-18T18:18:02.514Z,14.30
2022-10-18T18:20:55.044Z,12.80
2022-10-18T18:23:51.937Z,15.90
2022-10-18T18:26:42.126Z,16.00
2022-10-18T18:29:29.678Z,13.50
2022-10-18T18:32:18.308Z,14.10
2022-10-18T18:35:05.640Z,13.30
2022-10-18T18:37:53.337Z,12.30
2022-10-18T18:40:40.943Z,15.00
2022-10-18T18:43:29.501Z,16.20
2022-10-18T18:46:16.696Z,17.50
2022-10-18T18:49:03.717Z,19.10
2022-10-18T18:51:51.085Z,16.30
2022-10-18T18:54:40.042Z,14.40
2022-10-18T18:57:29.577Z,16.00
2022-10-18T19:00:16.594Z,13.10
2022-10-18T19:03:03.891Z,13.50
2022-10-18T19:05:51.734Z,11.40
2022-10-18T19:08:40.141Z,11.10
2022-10-18T19:11:28.984Z,12.00
2022-10-18T19:14:16.115Z,10.60
2022-10-18T19:17:07.268Z,6.80
2022-10-18T19:20:05.189Z,7.90
2022-10-18T19:22:57.147Z,5.20
2022-10-18T19:25:44.189Z,3.90
2022-10-18T19:28:36.279Z,3.20
2022-10-18T19:31:23.120Z,3.60
2022-10-18T19:34:16.491Z,3.00
2022-10-18T19:37:10.290Z,5.10
2022-10-18T19:41:45.592Z,5.40
2022-10-18T19:44:37.666Z,4.80
2022-10-18T19:47:33.423Z,7.20
2022-10-18T19:50:29.753Z,7.00
2022-10-18T19:53:21.669Z,6.70
2022-10-18T19:56:54.389Z,3.30
2022-10-18T19:59:47.829Z,3.10
2022-10-18T20:02:35.546Z,2.80
2022-10-18T20:05:23.363Z,2.50
2022-10-18T20:08:10.893Z,2.10
2022-10-18T20:11:07.138Z,1.80
2022-10-18T20:13:56.096Z,1.60
2022-10-18T20:16:43.224Z,2.60
2022-10-18T20:19:30.376Z,2.80
2022-10-18T20:22:19.006Z,1.70
2022-10-18T20:25:06.214Z,2.70
2022-10-18T20:27:53.271Z,4.90
2022-10-18T20:30:40.386Z,2.90
2022-10-18T20:33:27.131Z,6.80
2022-10-18T20:36:16.386Z,3.60
2022-10-18T20:39:04.496Z,2.80
2022-10-18T20:41:52.243Z,8.60
2022-10-18T20:44:43.930Z,1.60
2022-10-18T20:47:31.594Z,7.00
2022-10-18T20:50:19.577Z,3.50
2022-10-18T20:53:06.732Z,3.40
2022-10-18T20:56:03.292Z,3.40
2022-10-18T20:58:53.885Z,3.70
2022-10-18T21:01:42.535Z,3.70
2022-10-18T21:04:30.018Z,15.90
2022-10-18T21:07:16.903Z,12.10
2022-10-18T21:10:06.167Z,5.10
2022-10-18T21:12:53.188Z,4.70
2022-10-18T21:15:40.109Z,4.40
2022-10-18T21:18:32.061Z,3.70
2022-10-18T21:21:24.168Z,4.00
2022-10-18T21:24:12.040Z,5.00
2022-10-18T21:27:00.399Z,4.00
2022-10-18T21:29:49.406Z,4.40
2022-10-18T21:32:36.372Z,3.20
2022-10-18T21:35:23.326Z,3.20
2022-10-18T21:38:10.710Z,3.80
2022-10-18T21:40:57.982Z,3.00
2022-10-18T21:43:48.744Z,2.40
2022-10-18T21:46:35.794Z,2.30
2022-10-18T21:49:24.975Z,3.00
2022-10-18T21:52:11.637Z,2.00
2022-10-18T21:54:58.395Z,11.50
2022-10-18T21:57:47.718Z,11.40
2022-10-18T22:00:34.495Z,22.40
2022-10-18T22:03:24.533Z,11.80
2022-10-18T22:06:14.680Z,11.80
2022-10-18T22:09:04.776Z,6.80
2022-10-18T22:11:53.728Z,7.50
2022-10-18T22:14:40.980Z,3.80
2022-10-18T22:17:28.333Z,5.60
2022-10-18T22:20:15.710Z,15.70
2022-10-18T22:23:03.362Z,17.20
2022-10-18T22:25:50.507Z,17.30
2022-10-18T22:28:41.354Z,11.20
2022-10-18T22:31:30.763Z,7.70
2022-10-18T22:34:20.767Z,3.20
2022-10-18T22:37:07.915Z,2.90
2022-10-18T22:39:54.925Z,3.90
2022-10-18T22:42:42.058Z,2.70
2022-10-18T22:45:28.646Z,3.20
2022-10-18T22:48:15.515Z,4.30
2022-10-18T22:51:03.948Z,4.10
2022-10-18T22:53:50.963Z,4.30
2022-10-18T22:56:37.870Z,2.50
2022-10-18T22:59:24.839Z,6.50
2022-10-18T23:02:12.749Z,2.20
2022-10-18T23:05:00.001Z,4.80
2022-10-18T23:07:49.217Z,5.00
2022-10-18T23:10:40.798Z,26.00
2022-10-18T23:13:35.043Z,8.10
2022-10-18T23:16:24.594Z,12.50
2022-10-18T23:19:16.795Z,6.90
2022-10-18T23:22:04.197Z,13.90
2022-10-18T23:24:50.803Z,47.40
2022-10-18T23:27:38.087Z,13.80
2022-10-18T23:30:25.750Z,7.40
2022-10-18T23:33:12.841Z,4.80
2022-10-18T23:36:00.730Z,4.80
2022-10-18T23:38:49.667Z,3.50
2022-10-18T23:41:38.545Z,4.20
2022-10-18T23:44:25.484Z,4.80
2022-10-18T23:47:11.984Z,24.40
2022-10-18T23:49:59.172Z,49.80
2022-10-18T23:52:45.925Z,29.80
2022-10-18T23:55:32.557Z,33.40
2022-10-18T23:58:19.310Z,28.00
